Погода Козубщизнана 2 недели

Люблинское воеводство, Польша

23 мая-05 июня
  • 23мая
    Сегодня
    +12°
    +25°
    Небольшая облачность
    ВремяПогодаТемператураВлажностьДавлениеВетер, м/сВероятность осадков
    02:00Облачно с прояснениями+14°C88 %744 мм1.0 м/с13 %
    05:00Облачно с прояснениями+14°C95 %744 мм0.7 м/с14 %
    08:00Небольшая облачность+18°C84 %745 мм1.6 м/с11 %
    11:00Практически безоблачно+22°C52 %746 мм3.4 м/с7 %
    14:00Небольшая облачность+24°C36 %746 мм3.7 м/с17 %
    17:00Практически безоблачно+22°C45 %746 мм2.8 м/с19 %
    20:00Облачно с прояснениями+20°C74 %747 мм1.0 м/с5 %
    23:00Практически безоблачно+15°C88 %748 мм1.1 м/с2 %
  • 24мая
    Пятница
    +13°
    +27°
    Практически безоблачно
    ВремяПогодаТемператураВлажностьДавлениеВетер, м/сВероятность осадков
    02:00Ясно и безоблачно+14°C83 %748 мм1.2 м/с2 %
    05:00Ясно и безоблачно+13°C72 %749 мм1.1 м/с2 %
    08:00Ясно и безоблачно+19°C63 %750 мм2.1 м/с2 %
    11:00Ясно и безоблачно+24°C49 %750 мм2.8 м/с2 %
    14:00Практически безоблачно+27°C32 %750 мм4.3 м/с1 %
    17:00Небольшая облачность+25°C30 %749 мм3.4 м/с5 %
    20:00Практически безоблачно+21°C47 %750 мм2.4 м/с3 %
    23:00Ясно и безоблачно+18°C55 %750 мм2.2 м/с1 %
  • 25мая
    Суббота
    +13°
    +26°
    Практически безоблачно
    ВремяПогодаТемператураВлажностьДавлениеВетер, м/сВероятность осадков
    02:00Ясно и безоблачно+15°C72 %750 мм1.6 м/с2 %
    05:00Небольшая облачность+14°C82 %750 мм1.3 м/с2 %
    08:00Ясно и безоблачно+19°C65 %750 мм2.3 м/с2 %
    11:00Небольшая облачность+23°C50 %750 мм2.6 м/с10 %
    14:00Практически безоблачно+26°C39 %749 мм3.6 м/с35 %
    17:00Небольшая облачность, возможен дождь с грозой+23°C41 %749 мм2.4 м/с45 %
    20:00Ясно и безоблачно+20°C60 %749 мм1.5 м/с13 %
    23:00Небольшая облачность+16°C79 %749 мм1.2 м/с5 %
  • 26мая
    Воскресенье
    +11°
    +27°
    Практически безоблачно
    ВремяПогодаТемператураВлажностьДавлениеВетер, м/сВероятность осадков
    02:00Ясно и безоблачно+15°C70 %750 мм1.3 м/с3 %
    05:00Ясно и безоблачно+13°C73 %750 мм1.2 м/с2 %
    08:00Ясно и безоблачно+19°C64 %751 мм2.1 м/с3 %
    11:00Ясно и безоблачно+24°C42 %751 мм3.3 м/с8 %
    14:00Практически безоблачно+26°C35 %751 мм3.9 м/с15 %
    17:00Практически безоблачно+25°C32 %750 мм3.4 м/с25 %
    20:00Облачно с прояснениями+21°C58 %751 мм1.4 м/с17 %
    23:00Облачно с прояснениями+16°C57 %751 мм1.4 м/с3 %
  • 27мая
    Понедельник
    +11°
    +26°
    Ясно и безоблачно
    ВремяПогодаТемператураВлажностьДавлениеВетер, м/сВероятность осадков
    02:00Ясно и безоблачно+13°C50 %752 мм1.0 м/с2 %
    05:00Ясно и безоблачно+12°C58 %752 мм1.0 м/с2 %
    08:00Ясно и безоблачно+18°C49 %753 мм1.8 м/с2 %
    11:00Ясно и безоблачно+24°C29 %753 мм3.5 м/с2 %
    14:00Ясно и безоблачно+26°C26 %752 мм3.6 м/с2 %
    17:00Облачно с прояснениями+25°C26 %751 мм3.5 м/с2 %
    20:00Ясно и безоблачно+21°C40 %750 мм1.6 м/с2 %
    23:00Небольшая облачность+16°C39 %751 мм1.4 м/с2 %
Мы используем cookies
Соглашаюсь